createdAt,value
2023-05-22T00:00:02.391Z,101377.09
2023-05-22T00:02:43.861Z,101392.19
2023-05-22T00:05:14.785Z,101379.78
2023-05-22T00:07:46.250Z,101386.91
2023-05-22T00:10:18.936Z,101384.22
2023-05-22T00:12:49.058Z,101379.81
2023-05-22T00:15:18.908Z,101380.69
2023-05-22T00:17:48.970Z,101379.81
2023-05-22T00:20:19.065Z,101371.88
2023-05-22T00:22:49.168Z,101380.75
2023-05-22T00:25:22.412Z,101384.34
2023-05-22T00:27:52.455Z,101374.59
2023-05-22T00:30:22.692Z,101371.06
2023-05-22T00:32:52.748Z,101368.41
2023-05-22T00:35:23.847Z,101375.50
2023-05-22T00:37:53.868Z,101388.81
2023-05-22T00:40:26.427Z,101369.31
2023-05-22T00:42:56.530Z,101364.00
2023-05-22T00:45:26.391Z,101372.91
2023-05-22T00:47:56.738Z,101373.81
2023-05-22T00:50:27.008Z,101373.81
2023-05-22T00:52:57.030Z,101364.94
2023-05-22T00:55:29.674Z,101364.06
2023-05-22T00:57:59.856Z,101360.53
2023-05-22T01:00:29.913Z,101359.63
2023-05-22T01:03:01.373Z,101357.88
2023-05-22T01:05:31.827Z,101364.97
2023-05-22T01:08:01.750Z,101355.22
2023-05-22T01:10:35.069Z,101354.34
2023-05-22T01:13:12.632Z,101357.00
2023-05-22T01:15:47.602Z,101354.34
2023-05-22T01:18:22.466Z,101349.91
2023-05-22T01:20:58.393Z,101341.94
2023-05-22T01:24:03.893Z,101349.03
2023-05-22T01:26:57.633Z,101347.25
2023-05-22T01:29:37.034Z,101347.28
2023-05-22T01:32:12.092Z,101342.84
2023-05-22T01:34:42.963Z,101345.50
2023-05-22T01:37:13.529Z,101341.94
2023-05-22T01:39:43.394Z,101336.63
2023-05-22T01:42:13.487Z,101340.19
2023-05-22T01:44:44.306Z,101328.69
2023-05-22T01:47:18.204Z,101341.97
2023-05-22T01:49:48.972Z,101338.44
2023-05-22T01:52:22.886Z,101338.41
2023-05-22T01:54:58.451Z,101338.41
2023-05-22T01:57:31.764Z,101335.75
2023-05-22T02:00:10.034Z,101344.63
2023-05-22T02:02:52.629Z,101343.72
2023-05-22T02:05:26.146Z,101337.53
2023-05-22T02:07:59.309Z,101341.06
2023-05-22T02:10:31.103Z,101334.88
2023-05-22T02:13:01.070Z,101329.56
2023-05-22T02:15:31.042Z,101334.88
2023-05-22T02:18:06.186Z,101322.47
2023-05-22T02:20:36.453Z,101319.84
2023-05-22T02:23:07.673Z,101318.94
2023-05-22T02:25:37.675Z,101318.88
2023-05-22T02:28:07.915Z,101317.16
2023-05-22T02:30:38.164Z,101316.25
2023-05-22T02:33:11.662Z,101326.03
2023-05-22T02:35:41.737Z,101322.47
2023-05-22T02:38:11.950Z,101319.78
2023-05-22T02:40:42.286Z,101317.09
2023-05-22T02:43:12.396Z,101305.63
2023-05-22T02:45:42.379Z,101305.63
2023-05-22T02:48:15.044Z,101314.44
2023-05-22T02:50:45.010Z,101312.66
2023-05-22T02:53:15.873Z,101311.78
2023-05-22T02:55:46.255Z,101306.50
2023-05-22T02:58:16.234Z,101303.84
2023-05-22T03:00:46.296Z,101306.47
2023-05-22T03:03:20.224Z,101297.66
2023-05-22T03:05:53.921Z,101296.75
2023-05-22T03:08:24.025Z,101301.16
2023-05-22T03:10:54.080Z,101292.34
2023-05-22T03:13:24.035Z,101293.22
2023-05-22T03:15:54.549Z,101287.03
2023-05-22T03:18:27.823Z,101279.94
2023-05-22T03:20:58.769Z,101279.06
2023-05-22T03:23:28.736Z,101279.94
2023-05-22T03:25:58.796Z,101276.38
2023-05-22T03:28:32.782Z,101279.06
2023-05-22T03:31:03.041Z,101290.56
2023-05-22T03:33:43.165Z,101276.44
2023-05-22T03:36:13.231Z,101278.16
2023-05-22T03:38:43.316Z,101279.94
2023-05-22T03:41:14.074Z,101276.44
2023-05-22T03:43:45.124Z,101281.75
2023-05-22T03:46:15.943Z,101278.16
2023-05-22T03:48:48.640Z,101275.50
2023-05-22T03:51:20.209Z,101274.63
2023-05-22T03:53:50.729Z,101283.50
2023-05-22T03:56:21.394Z,101278.19
2023-05-22T03:58:52.343Z,101271.13
2023-05-22T04:01:22.423Z,101276.44
2023-05-22T04:03:55.167Z,101267.59
2023-05-22T04:06:25.834Z,101272.00
2023-05-22T04:08:55.634Z,101276.41
2023-05-22T04:11:25.784Z,101270.22
2023-05-22T04:13:56.793Z,101267.56
2023-05-22T04:16:26.893Z,101269.34
2023-05-22T04:19:01.685Z,101271.13
2023-05-22T04:21:34.575Z,101277.28
2023-05-22T04:24:07.491Z,101275.53
2023-05-22T04:26:40.965Z,101277.31
2023-05-22T04:29:14.769Z,101276.44
2023-05-22T04:31:44.882Z,101272.00
2023-05-22T04:34:18.935Z,101272.88
2023-05-22T04:36:49.072Z,101272.00
2023-05-22T04:39:19.538Z,101272.88
2023-05-22T04:41:50.766Z,101277.31
2023-05-22T04:44:23.062Z,101275.53
2023-05-22T04:46:57.513Z,101276.44
2023-05-22T04:49:30.121Z,101281.78
2023-05-22T04:52:04.924Z,101277.34
2023-05-22T04:54:34.846Z,101281.78
2023-05-22T04:57:05.632Z,101272.06
2023-05-22T04:59:38.131Z,101275.59
2023-05-22T05:02:08.474Z,101276.47
2023-05-22T05:04:41.623Z,101279.13
2023-05-22T05:07:11.485Z,101275.59
2023-05-22T05:09:41.317Z,101272.94
2023-05-22T05:12:11.413Z,101271.16
2023-05-22T05:14:41.266Z,101278.25
2023-05-22T05:17:11.138Z,101280.00
2023-05-22T05:19:45.704Z,101275.59
2023-05-22T05:22:15.441Z,101269.38
2023-05-22T05:24:45.276Z,101270.28
2023-05-22T05:27:15.402Z,101267.63
2023-05-22T05:29:45.359Z,101269.38
2023-05-22T05:32:23.766Z,101267.63
2023-05-22T05:35:06.258Z,101263.19
2023-05-22T05:37:48.685Z,101263.19
2023-05-22T05:40:18.654Z,101258.75
2023-05-22T05:42:53.098Z,101270.28
2023-05-22T05:45:27.193Z,101271.16
2023-05-22T05:47:57.052Z,101262.28
2023-05-22T05:50:29.702Z,101265.84
2023-05-22T05:53:00.155Z,101273.78
2023-05-22T05:55:32.727Z,101265.81
2023-05-22T05:58:04.593Z,101271.09
2023-05-22T06:00:48.737Z,101264.91
2023-05-22T06:03:18.724Z,101267.53
2023-05-22T06:06:06.241Z,101268.44
2023-05-22T06:08:56.019Z,101260.41
2023-05-22T06:11:32.338Z,101261.28
2023-05-22T06:14:03.228Z,101263.94
2023-05-22T06:16:33.277Z,101256.84
2023-05-22T06:19:04.882Z,101263.03
2023-05-22T06:21:37.648Z,101266.56
2023-05-22T06:24:08.416Z,101263.88
2023-05-22T06:26:38.350Z,101260.31
2023-05-22T06:29:08.276Z,101258.47
2023-05-22T06:31:39.892Z,101265.53
2023-05-22T06:34:10.858Z,101261.91
2023-05-22T06:36:43.329Z,101264.56
2023-05-22T06:39:13.565Z,101266.31
2023-05-22T06:42:12.692Z,101267.19
2023-05-22T06:45:01.012Z,101271.59
2023-05-22T06:47:39.225Z,101272.41
2023-05-22T06:50:10.759Z,101263.56
2023-05-22T06:52:43.493Z,101255.63
2023-05-22T06:55:14.927Z,101266.16
2023-05-22T06:58:01.217Z,101256.41
2023-05-22T07:00:31.616Z,101262.59
2023-05-22T07:03:16.523Z,101255.44
2023-05-22T07:05:59.777Z,101260.72
2023-05-22T07:08:32.806Z,101263.34
2023-05-22T07:11:06.940Z,101264.16
2023-05-22T07:13:36.796Z,101258.78
2023-05-22T07:16:07.333Z,101254.25
2023-05-22T07:18:40.199Z,101255.97
2023-05-22T07:21:10.081Z,101259.31
2023-05-22T07:23:42.523Z,101249.41
2023-05-22T07:26:12.646Z,101261.78
2023-05-22T07:28:51.122Z,101256.31
2023-05-22T07:31:21.050Z,101258.91
2023-05-22T07:33:52.155Z,101258.94
2023-05-22T07:36:22.080Z,101248.06
2023-05-22T07:38:54.640Z,101239.94
2023-05-22T07:41:24.959Z,101239.94
2023-05-22T07:43:54.984Z,101249.69
2023-05-22T07:46:30.339Z,101239.91
2023-05-22T07:49:09.237Z,101235.38
2023-05-22T07:51:41.978Z,101236.22
2023-05-22T07:54:16.236Z,101237.84
2023-05-22T07:56:48.859Z,101233.16
2023-05-22T07:59:21.790Z,101236.75
2023-05-22T08:01:51.695Z,101227.75
2023-05-22T08:04:21.831Z,101237.28
2023-05-22T08:06:51.847Z,101232.31
2023-05-22T08:09:24.584Z,101237.22
2023-05-22T08:11:54.333Z,101242.47
2023-05-22T08:14:24.452Z,101229.38
2023-05-22T08:16:54.431Z,101231.94
2023-05-22T08:19:24.429Z,101239.72
2023-05-22T08:21:58.414Z,101243.84
2023-05-22T08:24:31.573Z,101234.97
2023-05-22T08:27:01.509Z,101231.06
2023-05-22T08:29:31.690Z,101227.44
2023-05-22T08:32:01.738Z,101241.13
2023-05-22T08:34:32.749Z,101230.47
2023-05-22T08:37:02.694Z,101233.22
2023-05-22T08:39:35.364Z,101228.47
2023-05-22T08:42:05.379Z,101226.53
2023-05-22T08:44:35.377Z,101225.47
2023-05-22T08:47:10.003Z,101214.28
2023-05-22T08:49:41.714Z,101227.25
2023-05-22T08:52:16.442Z,101221.03
2023-05-22T08:54:53.374Z,101224.97
2023-05-22T08:57:23.323Z,101218.03
2023-05-22T08:59:53.573Z,101219.56
2023-05-22T09:02:23.245Z,101204.59
2023-05-22T09:04:53.060Z,101208.91
2023-05-22T09:07:23.906Z,101203.41
2023-05-22T09:09:56.495Z,101201.97
2023-05-22T09:12:28.896Z,101206.44
2023-05-22T09:15:01.460Z,101200.34
2023-05-22T09:17:31.411Z,101195.56
2023-05-22T09:20:04.903Z,101195.91
2023-05-22T09:22:39.392Z,101187.34
2023-05-22T09:25:12.316Z,101187.78
2023-05-22T09:27:42.181Z,101193.56
2023-05-22T09:30:12.881Z,101181.31
2023-05-22T09:32:42.725Z,101187.16
2023-05-22T09:35:13.074Z,101169.66
2023-05-22T09:37:43.264Z,101186.22
2023-05-22T09:40:17.048Z,101172.78
2023-05-22T09:42:47.752Z,101168.31
2023-05-22T09:45:17.663Z,101182.81
2023-05-22T09:47:52.315Z,101168.59
2023-05-22T09:50:22.726Z,101168.84
2023-05-22T09:52:54.032Z,101173.31
2023-05-22T09:55:26.860Z,101167.41
2023-05-22T09:57:57.847Z,101162.72
2023-05-22T10:00:28.684Z,101169.31
2023-05-22T10:03:04.094Z,101160.00
2023-05-22T10:05:34.910Z,101163.31
2023-05-22T10:08:08.242Z,101163.66
2023-05-22T10:10:41.606Z,101166.78
2023-05-22T10:13:11.734Z,101172.59
2023-05-22T10:15:41.503Z,101167.97
2023-05-22T10:18:11.914Z,101160.19
2023-05-22T10:20:42.365Z,101159.00
2023-05-22T10:23:13.517Z,101163.25
2023-05-22T10:25:46.403Z,101155.78
2023-05-22T10:28:19.012Z,101154.34
2023-05-22T10:30:56.121Z,101145.09
2023-05-22T10:33:28.134Z,101143.34
2023-05-22T10:36:01.290Z,101157.63
2023-05-22T10:38:59.795Z,101145.09
2023-05-22T10:41:32.237Z,101137.25
2023-05-22T10:44:02.108Z,101143.59
2023-05-22T10:46:35.322Z,101140.06
2023-05-22T10:49:05.229Z,101140.28
2023-05-22T10:51:35.487Z,101144.78
2023-05-22T10:57:12.957Z,101128.81
2023-05-22T10:59:42.967Z,101129.66
2023-05-22T11:02:23.426Z,101140.50
2023-05-22T11:04:53.639Z,101118.72
2023-05-22T11:07:23.406Z,101116.00
2023-05-22T11:10:03.665Z,101122.88
2023-05-22T11:12:37.572Z,101117.81
2023-05-22T11:15:10.257Z,101110.81
2023-05-22T11:17:46.897Z,101118.06
2023-05-22T11:20:22.646Z,101108.63
2023-05-22T11:22:59.259Z,101107.72
2023-05-22T11:25:30.960Z,101105.31
2023-05-22T11:28:05.829Z,101096.88
2023-05-22T11:30:36.809Z,101097.13
2023-05-22T11:33:08.641Z,101092.16
2023-05-22T11:35:38.784Z,101081.72
2023-05-22T11:38:08.718Z,101088.28
2023-05-22T11:40:39.098Z,101091.84
2023-05-22T11:43:12.038Z,101093.19
2023-05-22T11:45:42.758Z,101086.47
2023-05-22T11:48:15.420Z,101075.22
2023-05-22T11:50:46.751Z,101073.63
2023-05-22T11:53:16.753Z,101068.69
2023-05-22T11:55:46.673Z,101067.09
2023-05-22T11:58:21.960Z,101066.56
2023-05-22T12:00:51.951Z,101069.81
2023-05-22T12:03:22.091Z,101062.72
2023-05-22T12:05:53.842Z,101055.44
2023-05-22T12:08:23.909Z,101057.31
2023-05-22T12:10:54.497Z,101047.00
2023-05-22T12:13:31.979Z,101054.63
2023-05-22T12:16:03.580Z,101048.38
2023-05-22T12:18:39.433Z,101045.44
2023-05-22T12:21:09.951Z,101048.88
2023-05-22T12:23:50.273Z,101043.97
2023-05-22T12:26:21.649Z,101049.84
2023-05-22T12:28:55.946Z,101036.84
2023-05-22T12:31:26.221Z,101035.75
2023-05-22T12:33:59.884Z,101053.88
2023-05-22T12:36:37.796Z,101041.97
2023-05-22T12:39:11.351Z,101040.97
2023-05-22T12:41:41.505Z,101042.56
2023-05-22T12:44:13.854Z,101039.91
2023-05-22T12:46:44.041Z,101033.78
2023-05-22T12:49:13.909Z,101036.66
2023-05-22T12:51:43.989Z,101027.97
2023-05-22T12:54:14.980Z,101025.28
2023-05-22T12:56:44.842Z,101018.28
2023-05-22T12:59:18.820Z,101013.13
2023-05-22T13:01:50.161Z,101009.38
2023-05-22T13:04:20.079Z,101005.53
2023-05-22T13:06:49.991Z,100998.94
2023-05-22T13:09:21.125Z,100999.41
2023-05-22T13:11:51.113Z,100996.06
2023-05-22T13:14:23.583Z,100997.06
2023-05-22T13:16:53.422Z,100993.31
2023-05-22T13:19:23.268Z,100988.47
2023-05-22T13:21:53.304Z,100976.47
2023-05-22T13:24:23.347Z,100974.03
2023-05-22T13:26:53.498Z,100970.47
2023-05-22T13:29:25.784Z,100967.66
2023-05-22T13:31:55.820Z,100966.09
2023-05-22T13:34:25.908Z,100959.47
2023-05-22T13:36:55.727Z,100968.75
2023-05-22T13:39:25.898Z,100963.72
2023-05-22T13:41:56.270Z,100958.50
2023-05-22T13:44:28.908Z,100966.78
2023-05-22T13:46:58.985Z,100957.66
2023-05-22T13:49:29.225Z,100961.75
2023-05-22T13:51:58.996Z,100958.53
2023-05-22T13:54:28.980Z,100963.16
2023-05-22T13:57:00.165Z,100959.91
2023-05-22T13:59:32.832Z,100957.50
2023-05-22T14:02:02.800Z,100965.66
2023-05-22T14:04:32.789Z,100978.38
2023-05-22T14:07:02.796Z,100982.91
2023-05-22T14:09:33.079Z,101018.72
2023-05-22T14:12:03.237Z,101039.13
2023-05-22T14:14:36.049Z,101035.66
2023-05-22T14:17:06.260Z,101035.69
2023-05-22T14:19:36.420Z,101025.19
2023-05-22T14:22:06.774Z,101039.56
2023-05-22T14:24:36.572Z,101054.81
2023-05-22T14:27:06.764Z,101058.34
2023-05-22T14:29:39.412Z,101062.72
2023-05-22T14:32:09.736Z,101075.59
2023-05-22T14:34:39.782Z,101094.63
2023-05-22T14:37:09.796Z,101093.09
2023-05-22T14:39:39.819Z,101115.66
2023-05-22T14:42:10.665Z,101096.78
2023-05-22T14:44:43.310Z,101093.25
2023-05-22T14:47:13.430Z,101090.88
2023-05-22T14:49:43.509Z,101095.41
2023-05-22T14:52:13.775Z,101091.25
2023-05-22T14:54:43.783Z,101080.00
2023-05-22T14:57:14.482Z,101071.31
2023-05-22T14:59:49.241Z,101056.75
2023-05-22T15:02:24.828Z,101053.69
2023-05-22T15:04:54.953Z,101051.28
2023-05-22T15:07:35.907Z,101046.16
2023-05-22T15:10:13.388Z,101025.97
2023-05-22T15:12:43.097Z,101022.53
2023-05-22T15:15:15.982Z,101000.38
2023-05-22T15:17:46.105Z,100981.91
2023-05-22T15:20:16.388Z,100979.41
2023-05-22T15:22:46.425Z,100973.19
2023-05-22T15:25:17.704Z,100974.78
2023-05-22T15:27:47.761Z,100959.72
2023-05-22T15:30:22.111Z,100964.88
2023-05-22T15:32:52.198Z,100981.41
2023-05-22T15:35:22.248Z,100967.09
2023-05-22T15:37:52.151Z,100974.34
2023-05-22T15:40:22.856Z,100966.44
2023-05-22T15:42:52.860Z,100957.63
2023-05-22T15:45:25.451Z,100967.41
2023-05-22T15:47:55.403Z,100961.97
2023-05-22T15:50:25.503Z,100948.66
2023-05-22T15:52:55.424Z,100957.38
2023-05-22T15:55:25.591Z,100953.31
2023-05-22T15:57:55.511Z,100955.06
2023-05-22T16:00:30.001Z,100968.59
2023-05-22T16:03:00.140Z,100971.38
2023-05-22T16:05:31.624Z,100972.25
2023-05-22T16:08:01.572Z,100979.34
2023-05-22T16:10:31.619Z,100979.34
2023-05-22T16:13:01.559Z,100974.03
2023-05-22T16:15:34.551Z,100969.69
2023-05-22T16:18:04.650Z,100960.00
2023-05-22T16:20:34.598Z,100961.81
2023-05-22T16:23:05.194Z,100961.81
2023-05-22T16:25:35.214Z,100978.69
2023-05-22T16:28:05.814Z,100978.69
2023-05-22T16:30:40.175Z,100998.81
2023-05-22T16:33:10.258Z,101017.44
2023-05-22T16:35:40.510Z,101035.31
2023-05-22T16:38:12.378Z,101043.38
2023-05-22T16:40:42.413Z,101036.22
2023-05-22T16:43:14.043Z,101017.56
2023-05-22T16:45:51.245Z,101013.22
2023-05-22T16:48:21.670Z,101007.91
2023-05-22T16:50:51.489Z,101006.22
2023-05-22T16:53:21.393Z,101005.34
2023-05-22T16:55:51.487Z,101002.72
2023-05-22T16:58:21.925Z,100989.19
2023-05-22T17:00:54.642Z,100981.19
2023-05-22T17:03:24.528Z,100977.53
2023-05-22T17:05:54.631Z,100981.00
2023-05-22T17:08:24.439Z,100977.31
2023-05-22T17:10:54.288Z,100977.13
2023-05-22T17:13:24.072Z,100968.34
2023-05-22T17:15:56.638Z,100958.66
2023-05-22T17:18:26.418Z,100963.19
2023-05-22T17:20:57.020Z,100952.59
2023-05-22T17:23:26.916Z,100950.84
2023-05-22T17:25:57.420Z,100956.25
2023-05-22T17:28:26.985Z,100966.03
2023-05-22T17:30:59.520Z,100966.13
2023-05-22T17:33:29.451Z,100967.09
2023-05-22T17:35:59.420Z,100985.53
2023-05-22T17:38:29.436Z,100976.66
2023-05-22T17:41:00.928Z,100976.63
2023-05-22T17:43:30.860Z,100982.16
2023-05-22T17:46:03.435Z,100976.00
2023-05-22T17:48:33.208Z,100977.06
2023-05-22T17:51:03.650Z,100978.03
2023-05-22T17:53:35.707Z,100986.09
2023-05-22T17:56:06.642Z,100980.78
2023-05-22T17:58:36.360Z,100983.31
2023-05-22T18:01:08.903Z,100985.94
2023-05-22T18:03:38.842Z,100978.03
2023-05-22T18:06:09.415Z,100980.75
2023-05-22T18:08:39.989Z,100974.63
2023-05-22T18:11:09.726Z,100979.06
2023-05-22T18:13:39.540Z,100987.06
2023-05-22T18:16:12.200Z,100998.59
2023-05-22T18:18:42.075Z,101016.38
2023-05-22T18:21:12.047Z,101052.84
2023-05-22T18:23:41.917Z,101061.75
2023-05-22T18:26:11.886Z,101053.84
2023-05-22T18:28:42.629Z,101069.81
2023-05-22T18:31:15.035Z,101084.91
2023-05-22T18:33:45.252Z,101094.72
2023-05-22T18:36:15.347Z,101113.31
2023-05-22T18:38:45.092Z,101115.94
2023-05-22T18:41:14.853Z,101123.00
2023-05-22T18:43:44.690Z,101119.44
2023-05-22T18:46:17.242Z,101113.19
2023-05-22T18:48:47.155Z,101118.50
2023-05-22T18:51:18.474Z,101106.94
2023-05-22T18:53:48.408Z,101103.44
2023-05-22T18:56:18.188Z,101105.34
2023-05-22T18:58:47.949Z,101104.50
2023-05-22T19:01:20.516Z,101120.56
2023-05-22T19:03:50.366Z,101126.75
2023-05-22T19:06:20.236Z,101136.53
2023-05-22T19:08:49.992Z,101130.31
2023-05-22T19:11:19.912Z,101143.63
2023-05-22T19:13:49.879Z,101144.50
2023-05-22T19:16:22.351Z,101163.97
2023-05-22T19:18:52.232Z,101166.63
2023-05-22T19:21:22.092Z,101167.53
2023-05-22T19:23:51.985Z,101169.28
2023-05-22T19:26:22.180Z,101164.88
2023-05-22T19:28:52.037Z,101166.63
2023-05-22T19:31:24.402Z,101168.38
2023-05-22T19:33:54.246Z,101161.28
2023-05-22T19:36:24.159Z,101171.00
2023-05-22T19:38:54.006Z,101161.31
2023-05-22T19:41:24.340Z,101174.56
2023-05-22T19:43:54.446Z,101174.56
2023-05-22T19:46:27.136Z,101182.56
2023-05-22T19:48:57.152Z,101179.03
2023-05-22T19:51:28.100Z,101186.09
2023-05-22T19:53:57.897Z,101182.56
2023-05-22T19:56:28.380Z,101177.22
2023-05-22T19:58:57.879Z,101164.00
2023-05-22T20:01:30.453Z,101159.59
2023-05-22T20:04:01.269Z,101151.59
2023-05-22T20:06:33.749Z,101152.50
2023-05-22T20:09:05.934Z,101149.84
2023-05-22T20:11:35.906Z,101140.06
2023-05-22T20:14:05.750Z,101133.00
2023-05-22T20:16:38.202Z,101128.59
2023-05-22T20:19:09.293Z,101125.06
2023-05-22T20:21:39.183Z,101123.34
2023-05-22T20:24:12.274Z,101120.66
2023-05-22T20:26:42.115Z,101126.88
2023-05-22T20:29:11.930Z,101116.22
2023-05-22T20:31:44.376Z,101113.59
2023-05-22T20:34:14.390Z,101113.59
2023-05-22T20:36:45.014Z,101112.69
2023-05-22T20:39:14.950Z,101107.38
2023-05-22T20:41:45.601Z,101111.78
2023-05-22T20:44:16.512Z,101110.06
2023-05-22T20:46:48.858Z,101111.81
2023-05-22T20:49:20.880Z,101102.94
2023-05-22T20:51:51.120Z,101094.16
2023-05-22T20:54:21.232Z,101087.09
2023-05-22T20:56:51.049Z,101094.19
2023-05-22T20:59:20.834Z,101088.00
2023-05-22T21:01:53.405Z,101093.31
2023-05-22T21:04:23.482Z,101079.16
2023-05-22T21:06:53.406Z,101083.56
2023-05-22T21:09:23.215Z,101078.28
2023-05-22T21:11:53.121Z,101082.69
2023-05-22T21:14:23.040Z,101077.38
2023-05-22T21:16:55.995Z,101060.56
2023-05-22T22:57:36.217Z,101069.47
2023-05-22T23:00:06.960Z,101062.41
2023-05-22T23:02:36.896Z,101076.56
2023-05-22T23:05:07.201Z,101055.34
2023-05-22T23:07:37.415Z,101064.16
2023-05-22T23:10:07.939Z,101056.22
2023-05-22T23:12:40.254Z,101075.69
2023-05-22T23:15:13.757Z,101073.94
2023-05-22T23:17:43.858Z,101069.50
2023-05-22T23:20:14.483Z,101071.25
2023-05-22T23:22:44.566Z,101059.78
2023-05-22T23:25:14.609Z,101054.50
2023-05-22T23:27:47.197Z,101062.44
2023-05-22T23:30:17.401Z,101062.44
2023-05-22T23:32:47.511Z,101059.78
2023-05-22T23:35:17.605Z,101050.97
2023-05-22T23:37:48.031Z,101038.59
2023-05-22T23:40:17.864Z,101035.03
2023-05-22T23:42:50.855Z,101035.06
2023-05-22T23:45:20.934Z,101040.34
2023-05-22T23:47:51.095Z,101043.88
2023-05-22T23:50:21.187Z,101040.34
2023-05-22T23:52:51.333Z,101040.38
2023-05-22T23:55:21.400Z,101046.56
2023-05-22T23:57:54.224Z,101040.34
